createdAt,value
2017-06-20T00:00:01.543Z,8.07
2017-06-20T00:02:27.853Z,6.20
2017-06-20T00:04:54.200Z,5.73
2017-06-20T00:07:20.512Z,6.10
2017-06-20T00:09:46.855Z,6.60
2017-06-20T00:12:13.187Z,6.70
2017-06-20T00:14:39.503Z,6.80
2017-06-20T00:17:05.839Z,6.63
2017-06-20T00:19:32.181Z,5.80
2017-06-20T00:21:58.523Z,6.03
2017-06-20T00:24:24.833Z,6.30
2017-06-20T00:26:51.165Z,6.27
2017-06-20T00:29:17.498Z,5.87
2017-06-20T00:31:43.837Z,7.07
2017-06-20T00:34:10.153Z,5.73
2017-06-20T00:36:36.504Z,7.73
2017-06-20T00:39:02.899Z,9.67
2017-06-20T00:41:29.224Z,7.57
2017-06-20T00:43:56.294Z,6.27
2017-06-20T00:46:22.625Z,6.40
2017-06-20T00:48:49.013Z,7.43
2017-06-20T00:51:15.340Z,6.50
2017-06-20T00:53:41.651Z,6.27
2017-06-20T00:56:07.984Z,6.93
2017-06-20T00:58:34.319Z,5.83
2017-06-20T01:01:00.631Z,6.53
2017-06-20T01:03:27.709Z,7.50
2017-06-20T01:05:54.013Z,6.60
2017-06-20T01:08:21.086Z,7.13
2017-06-20T01:10:47.409Z,7.83
2017-06-20T01:13:13.740Z,6.80
2017-06-20T01:15:40.056Z,6.40
2017-06-20T01:18:07.152Z,6.30
2017-06-20T01:20:33.466Z,6.70
2017-06-20T01:22:59.815Z,6.73
2017-06-20T01:25:26.130Z,6.07
2017-06-20T01:27:52.458Z,7.07
2017-06-20T01:30:18.843Z,6.40
2017-06-20T01:32:45.925Z,6.80
2017-06-20T01:35:12.263Z,6.53
2017-06-20T01:37:38.578Z,6.07
2017-06-20T01:40:04.924Z,6.70
2017-06-20T01:42:31.269Z,7.50
2017-06-20T01:44:57.628Z,7.00
2017-06-20T01:47:23.947Z,7.30
2017-06-20T01:49:50.311Z,7.23
2017-06-20T01:52:17.405Z,6.70
2017-06-20T01:54:43.739Z,6.97
2017-06-20T01:57:10.097Z,6.77
2017-06-20T01:59:36.500Z,6.80
2017-06-20T02:02:02.868Z,6.47
2017-06-20T02:04:29.212Z,7.37
2017-06-20T02:06:55.564Z,6.30
2017-06-20T02:09:21.880Z,6.90
2017-06-20T02:11:48.997Z,6.50
2017-06-20T02:14:15.336Z,7.40
2017-06-20T02:16:41.709Z,6.80
2017-06-20T02:19:08.077Z,6.93
2017-06-20T02:21:34.421Z,7.13
2017-06-20T02:24:00.748Z,8.40
2017-06-20T02:26:27.095Z,7.90
2017-06-20T02:28:53.442Z,7.23
2017-06-20T02:31:20.568Z,7.17
2017-06-20T02:33:46.912Z,6.87
2017-06-20T02:36:13.226Z,8.63
2017-06-20T02:38:39.558Z,7.60
2017-06-20T02:41:05.881Z,6.60
2017-06-20T02:43:32.239Z,6.73
2017-06-20T02:45:58.548Z,9.03
2017-06-20T02:48:24.916Z,9.33
2017-06-20T02:50:51.959Z,6.83
2017-06-20T02:53:19.028Z,6.90
2017-06-20T02:55:45.336Z,6.30
2017-06-20T02:58:12.415Z,6.90
2017-06-20T03:00:38.740Z,7.10
2017-06-20T03:03:05.072Z,8.03
2017-06-20T03:05:31.378Z,7.00
2017-06-20T03:07:58.420Z,7.43
2017-06-20T03:10:25.666Z,8.13
2017-06-20T03:12:51.971Z,6.33
2017-06-20T03:15:18.316Z,7.50
2017-06-20T03:17:44.656Z,7.63
2017-06-20T03:20:18.077Z,6.60
2017-06-20T03:22:44.393Z,9.13
2017-06-20T03:25:11.482Z,7.30
2017-06-20T03:27:37.800Z,7.00
2017-06-20T03:30:04.144Z,7.20
2017-06-20T03:32:30.465Z,7.57
2017-06-20T03:34:56.788Z,6.30
2017-06-20T03:37:23.124Z,7.67
2017-06-20T03:39:49.435Z,6.97
2017-06-20T03:42:23.391Z,14.50
2017-06-20T03:44:49.716Z,7.43
2017-06-20T03:47:16.089Z,8.90
2017-06-20T03:49:42.409Z,6.27
2017-06-20T03:52:08.749Z,8.73
2017-06-20T03:54:35.061Z,7.30
2017-06-20T03:57:01.409Z,8.10
2017-06-20T03:59:27.723Z,7.57
2017-06-20T04:01:54.018Z,7.40
2017-06-20T04:04:20.350Z,7.53
2017-06-20T04:06:46.672Z,11.07
2017-06-20T04:09:13.011Z,8.17
2017-06-20T04:11:39.327Z,7.27
2017-06-20T04:14:05.659Z,10.30
2017-06-20T04:16:31.975Z,7.50
2017-06-20T04:18:59.084Z,7.87
2017-06-20T04:21:31.434Z,7.27
2017-06-20T04:24:12.678Z,8.23
2017-06-20T04:26:39.737Z,7.40
2017-06-20T04:29:06.055Z,7.47
2017-06-20T04:31:33.105Z,7.17
2017-06-20T04:34:00.184Z,7.80
2017-06-20T04:36:26.507Z,8.00
2017-06-20T04:38:52.824Z,7.60
2017-06-20T04:41:19.164Z,9.90
2017-06-20T04:43:45.473Z,7.60
2017-06-20T04:46:12.541Z,8.70
2017-06-20T04:48:38.848Z,7.97
2017-06-20T04:51:05.911Z,8.00
2017-06-20T04:53:32.222Z,10.70
2017-06-20T04:55:59.289Z,8.17
2017-06-20T04:58:25.612Z,7.60
2017-06-20T05:00:51.950Z,7.63
2017-06-20T05:03:18.277Z,8.00
2017-06-20T05:05:44.615Z,8.63
2017-06-20T05:08:10.948Z,7.03
2017-06-20T05:10:37.252Z,7.83
2017-06-20T05:13:04.322Z,8.80
2017-06-20T05:15:30.649Z,7.10
2017-06-20T05:17:57.224Z,7.20
2017-06-20T05:20:23.580Z,6.53
2017-06-20T05:22:50.030Z,7.00
2017-06-20T05:25:17.099Z,7.73
2017-06-20T05:27:43.504Z,7.03
2017-06-20T05:30:10.705Z,6.97
2017-06-20T05:32:37.104Z,8.43
2017-06-20T05:35:03.528Z,7.20
2017-06-20T05:37:30.612Z,7.50
2017-06-20T05:39:56.969Z,10.63
2017-06-20T05:42:23.288Z,6.90
2017-06-20T05:44:49.659Z,7.57
2017-06-20T05:47:15.978Z,7.90
2017-06-20T05:49:42.301Z,8.57
2017-06-20T05:52:08.646Z,7.33
2017-06-20T05:54:34.977Z,6.97
2017-06-20T05:57:01.328Z,6.90
2017-06-20T05:59:28.391Z,7.40
2017-06-20T06:01:54.745Z,7.70
2017-06-20T06:04:21.068Z,8.10
2017-06-20T06:06:47.631Z,7.77
2017-06-20T06:09:13.943Z,6.93
2017-06-20T06:11:40.264Z,7.50
2017-06-20T06:14:06.614Z,7.23
2017-06-20T06:16:32.936Z,6.23
2017-06-20T06:18:59.297Z,9.40
2017-06-20T06:21:25.618Z,7.40
2017-06-20T06:23:51.964Z,9.33
2017-06-20T06:26:18.289Z,7.40
2017-06-20T06:28:44.624Z,6.83
2017-06-20T06:31:10.954Z,15.60
2017-06-20T06:33:37.327Z,7.50
2017-06-20T06:36:03.689Z,10.30
2017-06-20T06:38:30.006Z,7.30
2017-06-20T06:40:56.351Z,6.97
2017-06-20T06:43:22.670Z,6.70
2017-06-20T06:45:49.110Z,7.80
2017-06-20T06:48:15.427Z,8.03
2017-06-20T06:50:41.944Z,9.70
2017-06-20T06:55:48.798Z,7.60
2017-06-20T06:58:15.113Z,7.40
2017-06-20T07:00:41.804Z,7.27
2017-06-20T07:03:08.164Z,8.90
2017-06-20T07:05:34.516Z,10.10
2017-06-20T07:08:00.838Z,7.43
2017-06-20T07:10:27.197Z,7.17
2017-06-20T07:12:53.542Z,7.40
2017-06-20T07:15:19.855Z,10.53
2017-06-20T07:17:46.220Z,9.77
2017-06-20T07:20:13.292Z,7.43
2017-06-20T07:22:39.697Z,8.90
2017-06-20T07:25:06.037Z,6.80
2017-06-20T07:27:32.382Z,6.70
2017-06-20T07:29:58.701Z,8.60
2017-06-20T07:32:25.066Z,7.47
2017-06-20T07:34:51.388Z,7.20
2017-06-20T07:37:18.074Z,7.47
2017-06-20T07:39:45.187Z,6.70
2017-06-20T07:42:11.528Z,7.10
2017-06-20T07:44:37.914Z,6.27
2017-06-20T07:47:04.238Z,6.60
2017-06-20T07:49:30.584Z,7.13
2017-06-20T07:51:56.896Z,7.10
2017-06-20T07:54:23.241Z,7.40
2017-06-20T07:56:49.557Z,7.73
2017-06-20T07:59:15.881Z,8.50
2017-06-20T08:01:42.196Z,9.47
2017-06-20T08:04:09.289Z,8.90
2017-06-20T08:06:35.645Z,5.90
2017-06-20T08:09:01.967Z,6.23
2017-06-20T08:11:28.300Z,6.63
2017-06-20T08:13:54.617Z,6.17
2017-06-20T08:16:20.966Z,6.57
2017-06-20T08:18:47.315Z,6.40
2017-06-20T08:21:19.645Z,5.93
2017-06-20T08:23:45.971Z,5.57
2017-06-20T08:26:12.315Z,5.23
2017-06-20T08:28:38.632Z,5.17
2017-06-20T08:31:04.950Z,5.67
2017-06-20T08:33:31.289Z,7.43
2017-06-20T08:36:03.784Z,8.07
2017-06-20T08:38:30.133Z,7.23
2017-06-20T08:40:56.444Z,5.77
2017-06-20T08:43:22.797Z,5.30
2017-06-20T08:45:49.109Z,5.40
2017-06-20T08:48:15.485Z,7.43
2017-06-20T08:50:42.564Z,6.40
2017-06-20T08:53:08.928Z,5.70
2017-06-20T08:55:35.263Z,7.20
2017-06-20T08:58:01.613Z,5.83
2017-06-20T09:00:27.927Z,5.83
2017-06-20T09:02:54.244Z,5.53
2017-06-20T09:05:20.588Z,6.80
2017-06-20T09:07:46.904Z,7.80
2017-06-20T09:10:13.248Z,8.17
2017-06-20T09:12:39.574Z,6.70
2017-06-20T09:15:05.916Z,7.03
2017-06-20T09:17:32.252Z,5.30
2017-06-20T09:19:58.624Z,5.57
2017-06-20T09:22:24.941Z,6.20
2017-06-20T09:24:52.023Z,6.10
2017-06-20T09:27:18.346Z,5.73
2017-06-20T09:29:44.697Z,7.30
2017-06-20T09:32:11.020Z,6.10
2017-06-20T09:34:37.354Z,7.00
2017-06-20T09:37:03.691Z,6.70
2017-06-20T09:39:30.004Z,6.37
2017-06-20T09:41:56.343Z,5.90
2017-06-20T09:44:22.697Z,6.53
2017-06-20T09:46:49.045Z,6.00
2017-06-20T09:49:15.385Z,8.80
2017-06-20T09:51:42.486Z,6.30
2017-06-20T09:54:08.813Z,6.43
2017-06-20T09:56:35.165Z,7.80
2017-06-20T09:59:01.494Z,5.50
2017-06-20T10:01:27.849Z,6.23
2017-06-20T10:03:54.193Z,8.50
2017-06-20T10:06:21.277Z,6.40
2017-06-20T10:08:47.644Z,7.37
2017-06-20T10:11:14.084Z,6.93
2017-06-20T10:13:40.456Z,7.47
2017-06-20T10:16:06.799Z,8.67
2017-06-20T10:18:33.173Z,7.37
2017-06-20T10:20:59.505Z,7.37
2017-06-20T10:23:25.856Z,7.37
2017-06-20T10:25:52.918Z,6.83
2017-06-20T10:28:20.021Z,7.40
2017-06-20T10:30:46.377Z,7.20
2017-06-20T10:33:13.454Z,10.70
2017-06-20T10:35:39.820Z,8.33
2017-06-20T10:38:06.138Z,7.60
2017-06-20T10:40:32.482Z,10.10
2017-06-20T10:42:58.817Z,7.80
2017-06-20T10:45:25.161Z,9.10
2017-06-20T10:47:51.485Z,8.00
2017-06-20T10:50:17.845Z,7.90
2017-06-20T10:52:44.925Z,9.00
2017-06-20T10:55:11.282Z,8.63
2017-06-20T10:57:37.620Z,8.80
2017-06-20T11:00:03.942Z,7.87
2017-06-20T11:02:30.284Z,9.63
2017-06-20T11:04:56.612Z,9.77
2017-06-20T11:07:22.959Z,8.83
2017-06-20T11:09:49.289Z,10.63
2017-06-20T11:12:15.649Z,9.00
2017-06-20T11:14:42.711Z,8.63
2017-06-20T11:17:09.065Z,9.83
2017-06-20T11:19:35.401Z,8.57
2017-06-20T11:22:01.727Z,9.50
2017-06-20T11:24:28.068Z,10.10
2017-06-20T11:26:54.397Z,9.37
2017-06-20T11:29:20.776Z,8.33
2017-06-20T11:31:47.832Z,8.47
2017-06-20T11:34:14.172Z,8.73
2017-06-20T11:36:40.959Z,8.77
2017-06-20T11:39:07.306Z,9.87
2017-06-20T11:41:34.367Z,8.60
2017-06-20T11:44:00.693Z,9.77
2017-06-20T11:46:27.037Z,9.70
2017-06-20T11:48:53.372Z,8.77
2017-06-20T11:51:19.710Z,10.80
2017-06-20T11:53:46.061Z,9.10
2017-06-20T11:56:12.396Z,8.90
2017-06-20T11:58:38.722Z,9.50
2017-06-20T12:01:05.061Z,9.63
2017-06-20T12:03:31.383Z,9.57
2017-06-20T12:05:57.701Z,10.63
2017-06-20T12:08:24.778Z,9.57
2017-06-20T12:10:51.089Z,9.27
2017-06-20T12:13:17.428Z,9.20
2017-06-20T12:15:43.751Z,9.77
2017-06-20T12:18:10.123Z,9.73
2017-06-20T12:20:36.436Z,9.20
2017-06-20T12:23:03.520Z,9.57
2017-06-20T12:25:29.837Z,11.17
2017-06-20T12:27:56.184Z,9.10
2017-06-20T12:30:22.508Z,9.20
2017-06-20T12:32:48.829Z,13.73
2017-06-20T12:35:15.173Z,9.20
2017-06-20T12:37:41.791Z,9.77
2017-06-20T12:40:08.428Z,9.53
2017-06-20T12:42:35.039Z,8.60
2017-06-20T12:45:01.778Z,9.57
2017-06-20T12:47:28.723Z,9.53
2017-06-20T12:49:55.363Z,11.37
2017-06-20T12:52:21.867Z,10.83
2017-06-20T12:54:48.430Z,9.97
2017-06-20T12:57:14.893Z,10.83
2017-06-20T12:59:41.331Z,9.63
2017-06-20T13:02:07.783Z,10.40
2017-06-20T13:04:34.972Z,10.67
2017-06-20T13:07:01.414Z,10.30
2017-06-20T13:09:27.853Z,10.90
2017-06-20T13:11:54.225Z,10.93
2017-06-20T13:14:20.550Z,11.93
2017-06-20T13:16:46.900Z,9.90
2017-06-20T13:19:13.967Z,10.50
2017-06-20T13:21:40.293Z,9.63
2017-06-20T13:24:07.388Z,9.27
2017-06-20T13:26:33.709Z,9.70
2017-06-20T13:29:00.047Z,10.37
2017-06-20T13:31:26.368Z,9.73
2017-06-20T13:33:52.714Z,10.30
2017-06-20T13:36:19.033Z,10.10
2017-06-20T13:38:45.360Z,10.87
2017-06-20T13:41:11.674Z,10.53
2017-06-20T13:43:38.007Z,13.90
2017-06-20T13:46:04.324Z,10.23
2017-06-20T13:48:30.674Z,10.03
2017-06-20T13:50:56.984Z,8.70
2017-06-20T13:53:23.296Z,9.50
2017-06-20T13:55:50.385Z,9.43
2017-06-20T13:58:16.718Z,9.87
2017-06-20T14:00:43.076Z,9.00
2017-06-20T14:03:09.406Z,9.60
2017-06-20T14:05:35.745Z,10.00
2017-06-20T14:08:02.070Z,8.77
2017-06-20T14:10:28.396Z,9.40
2017-06-20T14:12:54.707Z,9.07
2017-06-20T14:15:21.043Z,8.90
2017-06-20T14:17:47.378Z,8.73
2017-06-20T14:20:13.697Z,8.47
2017-06-20T14:22:40.039Z,7.73
2017-06-20T14:25:06.361Z,8.10
2017-06-20T14:27:32.947Z,7.83
2017-06-20T14:30:00.035Z,7.73
2017-06-20T14:32:26.811Z,8.57
2017-06-20T14:34:53.115Z,8.40
2017-06-20T14:37:19.461Z,8.30
2017-06-20T14:39:45.783Z,7.90
2017-06-20T14:42:12.123Z,9.00
2017-06-20T14:44:38.438Z,7.87
2017-06-20T14:47:04.751Z,7.53
2017-06-20T14:49:31.081Z,8.37
2017-06-20T14:51:57.404Z,8.57
2017-06-20T14:54:23.738Z,13.43
2017-06-20T14:56:50.056Z,8.03
2017-06-20T14:59:16.403Z,8.33
2017-06-20T15:01:42.821Z,8.90
2017-06-20T15:04:09.188Z,7.10
2017-06-20T15:06:35.495Z,8.47
2017-06-20T15:09:01.857Z,7.93
2017-06-20T15:11:28.170Z,6.90
2017-06-20T15:13:54.525Z,7.97
2017-06-20T15:16:20.847Z,10.13
2017-06-20T15:18:47.232Z,9.17
2017-06-20T15:21:14.290Z,8.30
2017-06-20T15:23:40.590Z,6.87
2017-06-20T15:26:06.927Z,7.50
2017-06-20T15:28:33.972Z,7.70
2017-06-20T15:31:01.054Z,7.90
2017-06-20T15:33:27.353Z,7.63
2017-06-20T15:35:54.431Z,7.40
2017-06-20T15:38:20.735Z,7.97
2017-06-20T15:40:47.806Z,7.83
2017-06-20T15:43:14.125Z,7.83
2017-06-20T15:45:41.195Z,6.83
2017-06-20T15:48:07.500Z,7.57
2017-06-20T15:50:34.561Z,8.83
2017-06-20T15:53:00.864Z,6.80
2017-06-20T15:55:27.972Z,11.37
2017-06-20T15:57:54.284Z,7.60
2017-06-20T16:00:20.586Z,8.00
2017-06-20T16:02:47.722Z,7.20
2017-06-20T16:05:14.824Z,7.57
2017-06-20T16:07:41.132Z,8.10
2017-06-20T16:10:07.479Z,7.30
2017-06-20T16:12:33.847Z,7.23
2017-06-20T16:15:00.181Z,7.20
2017-06-20T16:17:26.512Z,8.40
2017-06-20T16:19:52.838Z,7.43
2017-06-20T16:22:19.198Z,7.57
2017-06-20T16:24:46.259Z,7.50
2017-06-20T16:27:12.578Z,8.07
2017-06-20T16:29:39.655Z,7.90
2017-06-20T16:32:05.979Z,10.50
2017-06-20T16:34:33.232Z,11.10
2017-06-20T16:36:59.561Z,8.77
2017-06-20T16:39:25.893Z,8.63
2017-06-20T16:41:52.199Z,8.00
2017-06-20T16:44:19.286Z,7.13
2017-06-20T16:46:45.603Z,10.10
2017-06-20T16:49:11.976Z,7.60
2017-06-20T16:51:38.289Z,7.53
2017-06-20T16:54:04.609Z,7.57
2017-06-20T16:56:30.946Z,7.93
2017-06-20T16:58:57.271Z,7.57
2017-06-20T17:01:23.603Z,8.37
2017-06-20T17:03:49.919Z,7.67
2017-06-20T17:06:16.247Z,7.83
2017-06-20T17:08:42.573Z,7.93
2017-06-20T17:11:08.911Z,8.70
2017-06-20T17:13:35.233Z,8.37
2017-06-20T17:16:01.588Z,7.80
2017-06-20T17:18:28.022Z,7.93
2017-06-20T17:20:54.361Z,8.30
2017-06-20T17:23:20.700Z,8.00
2017-06-20T17:25:47.011Z,8.77
2017-06-20T17:28:13.367Z,8.70
2017-06-20T17:30:39.678Z,9.20
2017-06-20T17:33:06.029Z,8.27
2017-06-20T17:35:32.350Z,8.27
2017-06-20T17:37:58.698Z,10.10
2017-06-20T17:40:25.248Z,8.53
2017-06-20T17:42:51.571Z,8.63
2017-06-20T17:45:17.911Z,8.50
2017-06-20T17:47:44.981Z,8.30
2017-06-20T17:50:11.329Z,8.70
2017-06-20T17:52:37.656Z,8.20
2017-06-20T17:55:04.001Z,7.90
2017-06-20T17:57:30.308Z,8.50
2017-06-20T17:59:56.666Z,10.33
2017-06-20T18:02:22.986Z,8.60
2017-06-20T18:04:49.300Z,7.97
2017-06-20T18:07:15.631Z,8.60
2017-06-20T18:09:41.964Z,7.90
2017-06-20T18:12:08.308Z,9.00
2017-06-20T18:14:34.642Z,8.70
2017-06-20T18:17:01.808Z,8.50
2017-06-20T18:19:28.652Z,9.40
2017-06-20T18:21:55.004Z,11.90
2017-06-20T18:24:21.325Z,8.43
2017-06-20T18:26:47.675Z,9.43
2017-06-20T18:29:13.985Z,9.00
2017-06-20T18:31:40.320Z,9.30
2017-06-20T18:34:06.728Z,8.57
2017-06-20T18:36:33.031Z,7.67
2017-06-20T18:38:59.356Z,9.00
2017-06-20T18:41:25.660Z,8.13
2017-06-20T18:46:36.291Z,8.57
2017-06-20T18:49:02.663Z,10.70
2017-06-20T18:51:28.963Z,9.80
2017-06-20T18:53:55.291Z,8.83
2017-06-20T18:56:21.599Z,8.70
2017-06-20T18:58:47.952Z,9.10
2017-06-20T19:01:14.260Z,8.97
2017-06-20T19:03:40.585Z,8.40
2017-06-20T19:06:06.971Z,8.67
2017-06-20T19:08:33.280Z,9.10
2017-06-20T19:10:59.606Z,8.63
2017-06-20T19:13:25.916Z,9.07
2017-06-20T19:15:52.251Z,9.17
2017-06-20T19:18:18.766Z,10.00
2017-06-20T19:20:45.886Z,11.57
2017-06-20T19:23:12.244Z,10.80
2017-06-20T19:25:39.339Z,11.13
2017-06-20T19:28:05.670Z,9.47
2017-06-20T19:30:32.065Z,10.53
2017-06-20T19:32:58.381Z,12.50
2017-06-20T19:35:25.444Z,10.90
2017-06-20T19:37:51.787Z,10.37
2017-06-20T19:40:18.108Z,10.47
2017-06-20T19:42:44.448Z,10.10
2017-06-20T19:45:10.778Z,9.83
2017-06-20T19:47:37.557Z,10.50
2017-06-20T19:50:04.292Z,10.67
2017-06-20T19:52:31.139Z,15.33
2017-06-20T19:54:57.875Z,10.87
2017-06-20T19:57:24.473Z,11.27
2017-06-20T19:59:50.980Z,11.17
2017-06-20T20:02:18.092Z,12.00
2017-06-20T20:04:44.408Z,11.87
2017-06-20T20:07:10.760Z,12.27
2017-06-20T20:09:37.096Z,17.50
2017-06-20T20:12:03.413Z,13.43
2017-06-20T20:14:29.743Z,12.83
2017-06-20T20:16:56.067Z,15.47
2017-06-20T20:19:22.434Z,11.60
2017-06-20T20:21:48.820Z,12.47
2017-06-20T20:24:15.468Z,12.67
2017-06-20T20:26:41.784Z,12.73
2017-06-20T20:29:08.211Z,12.93
2017-06-20T20:31:34.521Z,12.10
2017-06-20T20:34:00.829Z,11.23
2017-06-20T20:36:27.992Z,12.40
2017-06-20T20:38:54.308Z,11.40
2017-06-20T20:41:21.378Z,13.00
2017-06-20T20:43:47.688Z,12.30
2017-06-20T20:46:14.768Z,11.77
2017-06-20T20:51:14.271Z,12.27
2017-06-20T20:53:40.583Z,14.83
2017-06-20T20:56:07.687Z,13.40
2017-06-20T20:58:34.007Z,12.90
2017-06-20T21:01:00.329Z,12.63
2017-06-20T21:03:26.645Z,12.97
2017-06-20T21:05:52.957Z,12.87
2017-06-20T21:08:19.314Z,12.63
2017-06-20T21:10:45.628Z,12.00
2017-06-20T21:13:11.966Z,13.60
2017-06-20T21:15:39.450Z,11.50
2017-06-20T21:18:05.956Z,12.77
2017-06-20T21:20:32.439Z,12.87
2017-06-20T21:22:59.149Z,16.50
2017-06-20T21:25:25.688Z,13.67
2017-06-20T21:27:52.166Z,13.37
2017-06-20T21:30:19.351Z,13.93
2017-06-20T21:32:46.523Z,14.50
2017-06-20T21:35:12.891Z,13.97
2017-06-20T21:37:39.215Z,14.47
2017-06-20T21:40:05.599Z,17.40
2017-06-20T21:42:31.916Z,13.97
2017-06-20T21:44:58.252Z,13.80
2017-06-20T21:47:24.570Z,13.10
2017-06-20T21:49:51.712Z,12.60
2017-06-20T21:52:19.115Z,13.90
2017-06-20T21:54:45.577Z,16.77
2017-06-20T21:57:11.919Z,14.07
2017-06-20T21:59:38.239Z,14.07
2017-06-20T22:02:04.601Z,13.50
2017-06-20T22:04:31.659Z,13.57
2017-06-20T22:06:58.147Z,13.47
2017-06-20T22:09:24.473Z,14.10
2017-06-20T22:11:50.795Z,14.10
2017-06-20T22:14:17.135Z,19.33
2017-06-20T22:16:43.463Z,14.27
2017-06-20T22:19:09.872Z,13.20
2017-06-20T22:21:36.190Z,14.50
2017-06-20T22:24:02.596Z,14.77
2017-06-20T22:26:29.654Z,15.13
2017-06-20T22:28:56.033Z,14.67
2017-06-20T22:31:22.355Z,15.40
2017-06-20T22:33:48.782Z,14.80
2017-06-20T22:36:15.115Z,14.67
2017-06-20T22:38:41.423Z,14.17
2017-06-20T22:41:07.767Z,14.70
2017-06-20T22:43:34.090Z,16.87
2017-06-20T22:46:00.436Z,16.50
2017-06-20T22:48:26.764Z,16.20
2017-06-20T22:50:53.100Z,16.00
2017-06-20T22:53:19.416Z,15.30
2017-06-20T22:55:45.751Z,15.67
2017-06-20T22:58:12.060Z,14.97
2017-06-20T23:00:38.396Z,14.27
2017-06-20T23:03:04.707Z,15.37
2017-06-20T23:05:31.045Z,14.63
2017-06-20T23:07:57.393Z,17.53
2017-06-20T23:10:23.727Z,15.63
2017-06-20T23:12:50.076Z,15.40
2017-06-20T23:15:16.392Z,15.30
2017-06-20T23:17:42.727Z,14.97
2017-06-20T23:20:09.063Z,15.73
2017-06-20T23:22:35.397Z,16.67
2017-06-20T23:25:01.711Z,14.90
2017-06-20T23:27:28.047Z,15.30
2017-06-20T23:29:54.351Z,15.60
2017-06-20T23:34:54.048Z,16.07
2017-06-20T23:37:21.095Z,16.60
2017-06-20T23:39:48.181Z,15.97
2017-06-20T23:42:14.554Z,15.97
2017-06-20T23:44:41.056Z,16.00
2017-06-20T23:47:07.378Z,16.43
2017-06-20T23:49:33.713Z,15.77
2017-06-20T23:52:00.048Z,16.93
2017-06-20T23:54:26.394Z,16.27
2017-06-20T23:56:52.748Z,17.10
2017-06-20T23:59:19.104Z,16.70
